createdAt,value
2018-06-11T04:53:45.749Z,19.55
2018-06-11T04:55:27.700Z,19.67
2018-06-11T04:55:50.172Z,19.63
2018-06-11T04:56:46.058Z,19.63
2018-06-11T04:57:48.796Z,19.62
2018-06-11T04:58:46.197Z,19.73
2018-06-11T04:59:47.351Z,19.86
2018-06-11T05:00:47.155Z,19.85
2018-06-11T05:03:35.996Z,19.95
2018-06-11T05:04:33.840Z,19.92
2018-06-11T05:05:33.905Z,19.94
2018-06-11T05:06:33.759Z,19.95
2018-06-11T05:07:34.791Z,19.99
2018-06-11T05:08:35.535Z,20.03
2018-06-11T05:09:34.489Z,20.10
2018-06-11T05:10:35.312Z,20.14
2018-06-11T05:11:36.019Z,20.13
2018-06-11T05:12:40.840Z,20.10
2018-06-11T05:14:32.762Z,20.14
2018-06-11T05:15:32.666Z,20.13
2018-06-11T05:16:32.927Z,20.13
2018-06-11T05:19:50.229Z,20.19
2018-06-11T05:20:50.830Z,20.28
2018-06-11T05:21:51.913Z,20.31
2018-06-11T05:22:48.176Z,20.24
2018-06-11T05:23:48.469Z,20.28
2018-06-11T05:24:48.605Z,20.19
2018-06-11T05:25:56.130Z,20.24
2018-06-11T05:33:06.474Z,20.10
2018-06-11T05:34:01.597Z,20.07
2018-06-11T05:37:03.216Z,20.28
2018-06-11T05:38:00.435Z,20.34
2018-06-11T05:39:01.053Z,20.31
2018-06-11T05:40:04.476Z,20.28
2018-06-11T05:41:13.319Z,20.31
2018-06-11T05:43:04.664Z,20.26
2018-06-11T05:51:35.860Z,20.51
2018-06-11T05:52:41.547Z,20.28
2018-06-11T06:04:24.489Z,20.09
2018-06-11T06:15:27.166Z,20.36
2018-06-11T06:18:13.607Z,20.26
2018-06-11T06:21:23.133Z,20.34
2018-06-11T06:22:14.893Z,20.29
2018-06-11T06:23:19.231Z,20.31
2018-06-11T06:24:14.594Z,20.34
2018-06-11T06:25:12.831Z,20.29
2018-06-11T06:26:13.085Z,20.32
2018-06-11T06:27:13.237Z,20.28
2018-06-11T06:28:13.268Z,20.25
2018-06-11T06:29:13.563Z,20.24
2018-06-11T06:30:13.454Z,20.26
2018-06-11T06:58:18.720Z,21.72
2018-06-11T06:59:19.478Z,21.52
2018-06-11T07:00:17.945Z,21.36
2018-06-11T07:01:16.979Z,21.52
2018-06-11T07:02:17.012Z,21.46
2018-06-11T07:03:17.098Z,21.39
2018-06-11T07:04:19.367Z,21.36
2018-06-11T07:05:17.626Z,21.24
2018-06-11T07:06:18.195Z,21.17
2018-06-11T07:07:18.035Z,21.21
2018-06-11T07:08:18.171Z,21.21
2018-06-11T07:09:18.228Z,21.22
2018-06-11T07:10:18.420Z,21.07
2018-06-11T07:11:18.692Z,20.87
2018-06-11T07:12:19.417Z,20.99
2018-06-11T07:13:20.007Z,20.97
2018-06-11T07:14:19.539Z,20.74
2018-06-11T07:15:19.512Z,20.96
2018-06-11T07:16:20.153Z,21.02
2018-06-11T07:17:19.920Z,21.11
2018-06-11T07:18:20.655Z,21.36
2018-06-11T07:19:22.508Z,21.45
2018-06-11T07:20:20.610Z,21.54
2018-06-11T07:21:21.327Z,21.82
2018-06-11T07:22:20.909Z,21.98
2018-06-11T07:23:22.016Z,22.13
2018-06-11T07:24:21.276Z,22.15
2018-06-11T07:25:21.423Z,22.30
2018-06-11T07:26:22.088Z,22.29
2018-06-11T07:27:22.361Z,22.38
2018-06-11T07:28:21.809Z,22.55
2018-06-11T07:30:59.723Z,22.59
2018-06-11T07:31:57.876Z,22.50
2018-06-11T07:32:58.323Z,22.60
2018-06-11T07:33:59.678Z,22.76
2018-06-11T07:34:59.155Z,22.98
2018-06-11T07:35:58.525Z,23.13
2018-06-11T07:36:59.984Z,23.37
2018-06-11T07:38:00.249Z,23.18
2018-06-11T07:38:59.747Z,23.21
2018-06-11T07:40:00.880Z,23.18
2018-06-11T07:40:58.211Z,23.17
2018-06-11T07:41:57.298Z,23.15
2018-06-11T07:42:57.336Z,23.23
2018-06-11T07:43:57.678Z,23.21
2018-06-11T07:44:57.938Z,23.10
2018-06-11T07:45:58.961Z,22.78
2018-06-11T07:46:58.152Z,22.60
2018-06-11T07:47:58.333Z,22.57
2018-06-11T07:48:58.934Z,22.76
2018-06-11T07:49:58.850Z,22.83
2018-06-11T07:50:58.849Z,22.96
2018-06-11T07:51:59.802Z,22.98
2018-06-11T07:52:59.347Z,23.05
2018-06-11T07:53:59.923Z,23.08
2018-06-11T07:55:02.277Z,22.90
2018-06-11T07:55:59.756Z,22.96
2018-06-11T07:57:00.045Z,22.72
2018-06-11T07:58:00.362Z,22.69
2018-06-11T07:59:00.432Z,22.62
2018-06-11T08:00:01.268Z,22.60
2018-06-11T08:01:00.598Z,22.57
2018-06-11T08:02:00.767Z,22.63
2018-06-11T08:03:00.964Z,22.68
2018-06-11T08:04:01.114Z,22.70
2018-06-11T08:05:02.185Z,22.65
2018-06-11T08:06:03.518Z,22.68
2018-06-11T08:07:01.914Z,22.62
2018-06-11T08:08:01.975Z,22.69
2018-06-11T08:09:02.174Z,22.84
2018-06-11T08:10:07.861Z,22.81
2018-06-11T08:11:07.409Z,22.76
2018-06-11T08:12:02.637Z,22.80
2018-06-11T11:07:58.537Z,29.76
2018-06-11T11:10:43.181Z,30.39
2018-06-11T11:10:55.364Z,30.69
2018-06-11T12:07:25.718Z,30.46
2018-06-11T12:08:00.670Z,30.25
2018-06-11T12:10:44.761Z,29.53
2018-06-11T12:11:15.251Z,29.17
2018-06-11T12:19:55.038Z,29.23
2018-06-11T12:41:22.843Z,31.52
2018-06-11T12:45:51.527Z,31.31
2018-06-11T13:02:31.724Z,31.36
2018-06-11T13:08:09.723Z,30.13
2018-06-11T13:12:58.581Z,28.15
